createdAt,value
2022-08-05T00:01:48.864Z,28.46
2022-08-05T00:04:55.579Z,28.65
2022-08-05T00:08:00.978Z,28.77
2022-08-05T00:11:20.281Z,28.72
2022-08-05T00:14:27.682Z,28.75
2022-08-05T00:17:31.015Z,28.74
2022-08-05T00:20:32.512Z,28.68
2022-08-05T00:23:45.956Z,28.67
2022-08-05T00:26:51.961Z,28.63
2022-08-05T00:29:54.331Z,28.55
2022-08-05T00:32:57.833Z,28.55
2022-08-05T00:36:16.258Z,28.44
2022-08-05T00:39:21.221Z,28.31
2022-08-05T00:42:33.708Z,28.22
2022-08-05T00:45:42.944Z,28.26
2022-08-05T00:48:50.261Z,28.12
2022-08-05T00:51:52.845Z,27.95
2022-08-05T00:54:54.615Z,27.90
2022-08-05T00:57:58.902Z,27.81
2022-08-05T01:01:00.721Z,27.74
2022-08-05T01:04:03.456Z,27.70
2022-08-05T01:07:15.266Z,27.56
2022-08-05T01:10:40.382Z,27.56
2022-08-05T01:14:15.531Z,27.39
2022-08-05T01:17:24.031Z,27.34
2022-08-05T01:20:36.983Z,27.37
2022-08-05T01:24:14.163Z,27.31
2022-08-05T01:27:24.351Z,27.22
2022-08-05T01:30:33.797Z,27.06
2022-08-05T01:33:43.489Z,27.01
2022-08-05T01:36:56.336Z,26.98
2022-08-05T01:40:03.646Z,26.96
2022-08-05T01:43:06.821Z,26.93
2022-08-05T01:46:43.184Z,26.96
2022-08-05T01:50:01.599Z,27.24
2022-08-05T01:53:09.927Z,27.09
2022-08-05T01:58:29.306Z,27.18
2022-08-05T01:59:39.778Z,27.28
2022-08-05T02:02:54.475Z,27.16
2022-08-05T02:05:59.654Z,27.06
2022-08-05T02:09:01.565Z,27.10
2022-08-05T02:12:06.343Z,27.17
2022-08-05T02:15:25.968Z,27.35
2022-08-05T02:19:09.216Z,27.22
2022-08-05T02:22:26.757Z,27.29
2022-08-05T02:25:49.229Z,27.22
2022-08-05T02:28:54.620Z,27.23
2022-08-05T02:31:58.015Z,27.36
2022-08-05T02:35:02.099Z,27.24
2022-08-05T02:38:19.457Z,27.23
2022-08-05T02:41:28.946Z,27.29
2022-08-05T02:44:40.826Z,27.40
2022-08-05T02:48:06.427Z,27.22
2022-08-05T02:51:06.574Z,27.20
2022-08-05T02:54:36.264Z,27.10
2022-08-05T02:58:12.160Z,27.14
2022-08-05T03:01:00.733Z,27.10
2022-08-05T03:04:12.015Z,27.09
2022-08-05T03:07:24.638Z,26.96
2022-08-05T03:10:37.417Z,27.01
2022-08-05T03:13:51.853Z,26.94
2022-08-05T03:17:00.797Z,27.07
2022-08-05T03:20:02.433Z,27.16
2022-08-05T03:23:06.290Z,27.19
2022-08-05T03:26:30.968Z,27.19
2022-08-05T03:29:45.392Z,27.18
2022-08-05T03:32:51.557Z,27.16
2022-08-05T03:35:56.792Z,27.13
2022-08-05T03:38:58.655Z,27.18
2022-08-05T03:42:00.223Z,27.10
2022-08-05T03:45:22.652Z,26.97
2022-08-05T03:48:26.282Z,26.96
2022-08-05T03:52:37.187Z,26.73
2022-08-05T03:56:05.719Z,26.54
2022-08-05T03:58:35.335Z,26.58
2022-08-05T04:01:40.210Z,26.55
2022-08-05T04:04:43.531Z,26.41
2022-08-05T04:07:57.529Z,26.35
2022-08-05T04:11:02.164Z,26.06
2022-08-05T04:14:04.426Z,25.54
2022-08-05T04:17:08.010Z,25.09
2022-08-05T04:20:18.004Z,24.86
2022-08-05T04:24:00.217Z,24.58
2022-08-05T04:26:46.742Z,24.27
2022-08-05T04:29:48.422Z,24.03
2022-08-05T04:32:49.872Z,23.92
2022-08-05T04:36:16.193Z,23.75
2022-08-05T04:39:12.730Z,23.62
2022-08-05T04:42:14.448Z,23.67
2022-08-05T04:45:31.320Z,23.80
2022-08-05T04:48:37.370Z,23.87
2022-08-05T04:51:39.174Z,23.85
2022-08-05T04:54:40.598Z,23.74
2022-08-05T04:57:47.609Z,23.79
2022-08-05T05:00:53.017Z,23.76
2022-08-05T05:03:54.470Z,23.81
2022-08-05T05:06:58.284Z,23.79
2022-08-05T05:10:04.030Z,23.82
2022-08-05T05:13:05.434Z,23.82
2022-08-05T05:16:07.262Z,23.81
2022-08-05T05:19:18.608Z,23.91
2022-08-05T05:22:23.888Z,24.12
2022-08-05T05:25:32.472Z,24.26
2022-08-05T05:28:38.883Z,24.32
2022-08-05T05:31:46.268Z,24.32
2022-08-05T05:34:48.118Z,24.29
2022-08-05T05:38:01.738Z,24.53
2022-08-05T05:41:03.867Z,24.71
2022-08-05T05:44:36.079Z,24.79
2022-08-05T05:48:06.000Z,24.96
2022-08-05T05:50:52.463Z,25.09
2022-08-05T05:53:58.811Z,25.35
2022-08-05T05:57:01.281Z,25.47
2022-08-05T06:00:10.115Z,25.49
2022-08-05T06:03:40.691Z,25.46
2022-08-05T06:06:37.755Z,25.40
2022-08-05T06:10:00.071Z,25.44
2022-08-05T06:13:03.786Z,25.45
2022-08-05T06:16:28.194Z,25.38
2022-08-05T06:19:34.875Z,25.42
2022-08-05T06:22:37.327Z,25.43
2022-08-05T06:26:12.943Z,25.45
2022-08-05T06:29:23.789Z,25.56
2022-08-05T06:32:28.974Z,25.59
2022-08-05T06:36:06.972Z,25.68
2022-08-05T06:38:54.597Z,25.78
2022-08-05T06:41:58.888Z,25.76
2022-08-05T06:45:00.618Z,25.75
2022-08-05T06:48:35.940Z,25.76
2022-08-05T06:51:30.707Z,25.91
2022-08-05T06:54:32.957Z,26.22
2022-08-05T06:57:58.199Z,26.31
2022-08-05T07:01:00.013Z,26.11
2022-08-05T07:04:02.461Z,26.39
2022-08-05T07:07:07.933Z,26.65
2022-08-05T07:10:10.065Z,26.76
2022-08-05T07:13:59.237Z,26.88
2022-08-05T07:17:58.330Z,27.11
2022-08-05T07:20:39.096Z,27.28
2022-08-05T07:23:49.123Z,27.40
2022-08-05T07:26:53.656Z,27.34
2022-08-05T07:30:24.749Z,27.35
2022-08-05T07:33:21.365Z,27.64
2022-08-05T07:36:38.981Z,27.74
2022-08-05T07:40:27.008Z,27.77
2022-08-05T07:43:04.899Z,27.70
2022-08-05T07:46:25.265Z,27.63
2022-08-05T07:49:27.036Z,27.67
2022-08-05T07:52:28.556Z,27.59
2022-08-05T07:55:44.215Z,27.63
2022-08-05T07:58:57.553Z,27.68
2022-08-05T08:02:02.274Z,27.98
2022-08-05T08:05:05.046Z,28.12
2022-08-05T08:08:06.479Z,28.13
2022-08-05T08:11:16.149Z,28.21
2022-08-05T08:14:18.974Z,28.12
2022-08-05T08:17:21.491Z,28.01
2022-08-05T08:20:59.908Z,27.94
2022-08-05T08:24:03.101Z,27.95
2022-08-05T08:27:07.271Z,27.83
2022-08-05T08:30:27.649Z,27.81
2022-08-05T08:33:37.438Z,28.03
2022-08-05T08:36:47.617Z,28.11
2022-08-05T08:39:54.285Z,28.13
2022-08-05T08:42:56.785Z,28.22
2022-08-05T08:45:59.349Z,28.32
2022-08-05T08:50:07.691Z,28.33
2022-08-05T08:52:30.198Z,28.32
2022-08-05T08:56:03.606Z,28.34
2022-08-05T08:58:59.119Z,28.19
2022-08-05T09:02:08.605Z,28.03
2022-08-05T09:05:16.381Z,28.21
2022-08-05T09:08:19.438Z,28.35
2022-08-05T09:11:51.524Z,28.52
2022-08-05T09:14:58.931Z,28.60
2022-08-05T09:18:08.842Z,28.58
2022-08-05T09:21:11.688Z,28.61
2022-08-05T09:24:22.596Z,28.55
2022-08-05T09:28:05.054Z,28.75
2022-08-05T09:31:23.213Z,28.62
2022-08-05T09:34:54.935Z,28.53
2022-08-05T09:38:12.310Z,28.51
2022-08-05T09:41:18.641Z,28.42
2022-08-05T09:44:37.106Z,28.43
2022-08-05T09:47:55.841Z,28.79
2022-08-05T09:51:01.585Z,28.97
2022-08-05T09:54:05.305Z,29.11
2022-08-05T09:57:23.185Z,29.14
2022-08-05T10:00:25.834Z,29.05
2022-08-05T10:03:56.575Z,29.20
2022-08-05T10:06:59.285Z,29.23
2022-08-05T10:10:15.222Z,29.35
2022-08-05T10:13:43.888Z,29.46
2022-08-05T10:16:52.374Z,29.60
2022-08-05T10:20:04.488Z,29.81
2022-08-05T10:23:34.431Z,30.03
2022-08-05T10:26:48.864Z,30.24
2022-08-05T10:30:06.519Z,29.85
2022-08-05T10:33:14.659Z,29.79
2022-08-05T10:36:16.850Z,30.02
2022-08-05T10:40:04.263Z,30.12
2022-08-05T10:42:56.222Z,30.31
2022-08-05T10:46:06.215Z,30.04
2022-08-05T10:49:10.503Z,29.97
2022-08-05T10:52:52.340Z,30.26
2022-08-05T10:56:21.031Z,30.38
2022-08-05T11:00:02.128Z,30.45
2022-08-05T11:03:23.104Z,30.50
2022-08-05T11:06:31.192Z,30.31
2022-08-05T11:10:07.723Z,30.45
2022-08-05T11:13:55.050Z,30.61
2022-08-05T11:17:57.863Z,30.83
2022-08-05T11:20:50.958Z,30.74
2022-08-05T11:24:04.140Z,30.63
2022-08-05T11:27:50.768Z,30.92
2022-08-05T11:30:58.552Z,30.75
2022-08-05T11:34:03.113Z,30.82
2022-08-05T11:37:06.151Z,30.86
2022-08-05T11:41:14.019Z,31.08
2022-08-05T11:44:40.834Z,31.42
2022-08-05T11:47:49.523Z,31.14
2022-08-05T11:50:53.068Z,31.06
2022-08-05T11:53:56.187Z,30.99
2022-08-05T11:56:58.015Z,30.85
2022-08-05T12:00:03.747Z,31.05
2022-08-05T12:03:28.494Z,30.62
2022-08-05T12:06:35.462Z,30.43
2022-08-05T12:09:54.393Z,30.76
2022-08-05T12:13:03.782Z,30.71
2022-08-05T12:16:19.053Z,31.09
2022-08-05T12:20:27.152Z,30.87
2022-08-05T12:22:46.143Z,30.65
2022-08-05T12:25:53.465Z,30.29
2022-08-05T12:28:54.949Z,30.24
2022-08-05T12:32:01.974Z,30.08
2022-08-05T12:35:05.302Z,29.76
2022-08-05T12:38:10.174Z,29.77
2022-08-05T12:41:14.046Z,30.28
2022-08-05T12:44:32.585Z,30.22
2022-08-05T12:48:01.014Z,29.97
2022-08-05T12:52:10.949Z,30.13
2022-08-05T12:54:35.714Z,30.00
2022-08-05T12:58:50.934Z,30.02
2022-08-05T13:02:02.216Z,29.86
2022-08-05T13:04:21.684Z,29.93
2022-08-05T13:10:50.758Z,30.40
2022-08-05T13:14:05.834Z,30.01
2022-08-05T13:17:32.011Z,30.31
2022-08-05T13:20:43.722Z,30.22
2022-08-05T13:23:50.674Z,30.10
2022-08-05T13:26:53.797Z,29.69
2022-08-05T13:29:59.400Z,29.43
2022-08-05T13:34:23.461Z,29.48
2022-08-05T13:36:38.695Z,29.28
2022-08-05T13:40:14.207Z,29.18
2022-08-05T13:43:02.872Z,29.08
2022-08-05T13:46:04.314Z,29.00
2022-08-05T13:49:09.814Z,28.71
2022-08-05T13:52:16.630Z,28.87
2022-08-05T13:55:41.720Z,28.84
2022-08-05T13:58:39.632Z,28.87
2022-08-05T14:01:46.720Z,29.08
2022-08-05T14:05:11.577Z,29.66
2022-08-05T14:08:21.335Z,29.68
2022-08-05T14:11:31.318Z,29.66
2022-08-05T14:14:32.807Z,29.75
2022-08-05T14:17:35.514Z,30.08
2022-08-05T14:20:37.006Z,30.30
2022-08-05T14:23:38.754Z,30.49
2022-08-05T14:26:47.168Z,30.04
2022-08-05T14:29:58.108Z,30.08
2022-08-05T14:33:00.632Z,30.03
2022-08-05T14:36:04.068Z,30.11
2022-08-05T14:39:05.875Z,29.95
2022-08-05T14:42:21.345Z,29.80
2022-08-05T14:45:23.351Z,29.78
2022-08-05T14:48:32.516Z,29.55
2022-08-05T14:51:42.767Z,29.72
2022-08-05T14:54:53.302Z,29.53
2022-08-05T14:57:56.541Z,29.39
2022-08-05T15:01:00.325Z,29.47
2022-08-05T15:04:03.495Z,29.42
2022-08-05T15:07:04.980Z,29.63
2022-08-05T15:10:09.922Z,29.62
2022-08-05T15:13:11.626Z,29.44
2022-08-05T15:16:13.342Z,29.33
2022-08-05T15:19:23.719Z,29.17
2022-08-05T15:22:27.249Z,29.00
2022-08-05T15:25:41.098Z,28.87
2022-08-05T15:28:52.010Z,28.81
2022-08-05T15:31:53.532Z,28.85
2022-08-05T15:34:54.970Z,28.79
2022-08-05T15:38:33.185Z,28.65
2022-08-05T15:41:21.388Z,28.84
2022-08-05T15:44:30.206Z,28.97
2022-08-05T15:47:32.365Z,28.91
2022-08-05T15:50:37.454Z,28.74
2022-08-05T15:53:51.023Z,28.50
2022-08-05T15:56:53.133Z,28.23
2022-08-05T15:59:57.744Z,28.12
2022-08-05T16:02:59.687Z,27.94
2022-08-05T16:06:01.253Z,27.76
2022-08-05T16:09:04.025Z,27.54
2022-08-05T16:12:05.860Z,27.42
2022-08-05T16:15:08.084Z,27.34
2022-08-05T16:18:12.209Z,27.09
2022-08-05T16:21:15.895Z,27.28
2022-08-05T16:24:39.827Z,27.33
2022-08-05T16:28:00.151Z,27.23
2022-08-05T16:31:01.385Z,27.27
2022-08-05T16:34:02.914Z,27.05
2022-08-05T16:38:01.815Z,26.71
2022-08-05T16:40:29.593Z,26.61
2022-08-05T16:43:33.173Z,26.87
2022-08-05T16:46:35.030Z,26.90
2022-08-05T16:49:38.990Z,26.62
2022-08-05T16:52:46.150Z,26.83
2022-08-05T16:55:47.681Z,26.81
2022-08-05T16:58:49.211Z,26.74
2022-08-05T17:01:54.540Z,26.68
2022-08-05T17:04:57.065Z,26.70
2022-08-05T17:07:58.722Z,26.54
2022-08-05T17:11:00.593Z,26.70
2022-08-05T17:14:06.165Z,26.40
2022-08-05T17:17:14.270Z,26.11
2022-08-05T17:20:16.614Z,25.98
2022-08-05T17:24:03.545Z,25.78
2022-08-05T17:26:40.900Z,25.61
2022-08-05T17:29:42.498Z,25.49
2022-08-05T17:32:43.908Z,25.39
2022-08-05T17:36:07.553Z,25.42
2022-08-05T17:39:24.468Z,25.14
2022-08-05T17:42:32.276Z,25.07
2022-08-05T17:45:38.709Z,25.01
2022-08-05T17:48:40.382Z,25.02
2022-08-05T17:51:46.457Z,24.98
2022-08-05T17:54:52.110Z,24.91
2022-08-05T17:57:54.088Z,24.78
2022-08-05T18:00:55.553Z,24.58
2022-08-05T18:04:04.453Z,24.49
2022-08-05T18:07:07.205Z,24.47
2022-08-05T18:10:20.348Z,24.38
2022-08-05T18:13:22.677Z,24.33
2022-08-05T18:16:27.369Z,24.21
2022-08-05T18:19:28.790Z,24.18
2022-08-05T18:22:36.230Z,24.15
2022-08-05T18:25:39.424Z,24.06
2022-08-05T18:28:41.405Z,23.94
2022-08-05T18:31:49.698Z,23.81
2022-08-05T18:34:51.210Z,23.77
2022-08-05T18:37:52.662Z,23.72
2022-08-05T18:41:55.075Z,23.64
2022-08-05T18:44:33.342Z,23.74
2022-08-05T18:47:37.942Z,23.82
2022-08-05T18:52:03.016Z,23.76
2022-08-05T18:54:19.360Z,23.72
2022-08-05T18:57:23.940Z,23.58
2022-08-05T19:00:29.221Z,23.60
2022-08-05T19:03:52.707Z,23.68
2022-08-05T19:06:53.504Z,23.62
2022-08-05T19:09:55.537Z,23.60
2022-08-05T19:12:57.493Z,23.56
2022-08-05T19:16:03.525Z,23.66
2022-08-05T19:19:05.417Z,23.63
2022-08-05T19:22:07.004Z,23.61
2022-08-05T19:25:10.578Z,23.60
2022-08-05T19:28:23.245Z,23.59
2022-08-05T19:31:26.163Z,23.68
2022-08-05T19:34:35.355Z,23.65
2022-08-05T19:38:04.208Z,23.62
2022-08-05T19:40:58.264Z,23.47
2022-08-05T19:44:12.758Z,23.45
2022-08-05T19:47:16.309Z,23.32
2022-08-05T19:50:19.880Z,23.31
2022-08-05T19:54:04.707Z,23.28
2022-08-05T19:56:42.782Z,23.39
2022-08-05T20:00:01.230Z,23.35
2022-08-05T20:03:12.844Z,23.28
2022-08-05T20:06:15.976Z,23.34
2022-08-05T20:09:30.389Z,23.26
2022-08-05T20:12:52.061Z,23.36
2022-08-05T20:15:56.800Z,23.28
2022-08-05T20:18:59.142Z,23.28
2022-08-05T20:22:02.956Z,23.31
2022-08-05T20:25:06.817Z,23.29
2022-08-05T20:28:14.558Z,23.27
2022-08-05T20:31:17.534Z,23.28
2022-08-05T20:34:23.460Z,23.20
2022-08-05T20:38:05.499Z,23.11
2022-08-05T20:40:47.480Z,23.14
2022-08-05T20:43:59.684Z,23.04
2022-08-05T20:47:05.164Z,23.10
2022-08-05T20:50:11.377Z,23.06
2022-08-05T20:53:15.923Z,23.07
2022-08-05T20:56:42.283Z,23.05
2022-08-05T21:00:11.191Z,23.13
2022-08-05T21:03:07.576Z,23.20
2022-08-05T21:06:28.591Z,23.22
2022-08-05T21:09:32.282Z,23.05
2022-08-05T21:12:35.969Z,22.91
2022-08-05T21:15:37.411Z,22.86
2022-08-05T21:18:38.865Z,22.90
2022-08-05T21:21:50.994Z,22.92
2022-08-05T21:24:54.290Z,22.89
2022-08-05T21:27:56.373Z,22.78
2022-08-05T21:30:58.775Z,22.81
2022-08-05T21:34:00.192Z,22.85
2022-08-05T21:37:04.682Z,22.79
2022-08-05T21:40:07.202Z,22.73
2022-08-05T21:43:23.898Z,22.72
2022-08-05T21:46:27.259Z,22.77
2022-08-05T21:49:59.295Z,22.67
2022-08-05T21:52:52.347Z,22.72
2022-08-05T21:56:04.979Z,22.73
2022-08-05T21:59:24.113Z,22.60
2022-08-05T22:02:27.831Z,22.66
2022-08-05T22:05:29.409Z,22.65
2022-08-05T22:08:52.490Z,22.58
2022-08-05T22:11:54.629Z,22.55
2022-08-05T22:14:56.918Z,22.55
2022-08-05T22:18:00.058Z,22.58
2022-08-05T22:21:04.018Z,22.54
2022-08-05T22:24:40.248Z,22.43
2022-08-05T22:28:08.641Z,22.40
2022-08-05T22:31:09.025Z,22.45
2022-08-05T22:34:12.912Z,22.44
2022-08-05T22:37:58.076Z,22.43
2022-08-05T22:40:49.558Z,22.43
2022-08-05T22:43:51.630Z,22.46
2022-08-05T22:46:53.043Z,22.41
2022-08-05T22:50:18.062Z,22.45
2022-08-05T22:53:16.637Z,22.29
2022-08-05T22:56:30.621Z,22.14
2022-08-05T22:59:47.408Z,22.11
2022-08-05T23:02:53.914Z,22.01
2022-08-05T23:05:55.851Z,21.95
2022-08-05T23:08:57.270Z,22.02
2022-08-05T23:12:20.224Z,22.15
2022-08-05T23:15:29.494Z,22.02
2022-08-05T23:18:36.204Z,22.01
2022-08-05T23:21:43.025Z,22.11
2022-08-05T23:24:51.068Z,21.99
2022-08-05T23:28:00.165Z,22.02
2022-08-05T23:31:17.040Z,22.03
2022-08-05T23:34:24.605Z,21.96
2022-08-05T23:37:26.695Z,22.01
2022-08-05T23:40:35.803Z,21.99
2022-08-05T23:44:05.430Z,22.03
2022-08-05T23:47:02.645Z,22.09
2022-08-05T23:50:16.998Z,22.08
2022-08-05T23:53:22.599Z,22.06
2022-08-05T23:56:27.480Z,22.10
